Time;durP1;ratioP1;P1;durP2;ratioP2;P2;SDS_P1;SDS_P2;PMS_P1;PMS_P2;Temp;Humidity;BMP_temperature;BMP_pressure;BME280_temperature;BME280_humidity;BME280_pressure;Samples;Min_cycle;Max_cycle;Signal;HPM_P1;HPM_P2
2024/03/17 00:00:56;;;;;;;18.85;16.08;;;;;;;;;;10265825;28;20055;-62
2024/03/17 00:05:56;;;;;;;23.50;21.02;;;;;;;;;;10274312;28;20466;-62
2024/03/17 00:10:54;;;;;;;14.27;10.88;;;;;;;;;;10276288;28;20083;-62
2024/03/17 00:15:56;;;;;;;12.32;10.40;;;;;;;;;;10276817;28;20076;-61
2024/03/17 00:20:54;;;;;;;14.52;11.43;;;;;;;;;;10275378;28;20075;-62
2024/03/17 00:25:51;;;;;;;21.08;17.70;;;;;;;;;;10275818;28;20072;-61
2024/03/17 00:30:49;;;;;;;17.15;14.88;;;;;;;;;;10282637;28;20076;-61
2024/03/17 00:35:48;;;;;;;27.17;18.27;;;;;;;;;;10274780;28;20510;-61
2024/03/17 00:40:47;;;;;;;25.20;18.33;;;;;;;;;;10271615;28;20064;-61
2024/03/17 00:45:44;;;;;;;22.17;19.30;;;;;;;;;;10260629;28;20072;-62
2024/03/17 00:50:42;;;;;;;28.17;20.98;;;;;;;;;;10277794;28;20080;-61
2024/03/17 00:55:40;;;;;;;21.10;15.40;;;;;;;;;;10277325;28;20052;-61
2024/03/17 01:00:38;;;;;;;14.65;12.40;;;;;;;;;;10270724;28;20064;-61
2024/03/17 01:05:36;;;;;;;13.63;11.50;;;;;;;;;;10279391;28;20086;-61
2024/03/17 01:10:33;;;;;;;16.42;13.43;;;;;;;;;;10281382;28;20529;-62
2024/03/17 01:15:32;;;;;;;20.35;15.70;;;;;;;;;;10280561;28;20491;-62
2024/03/17 01:20:29;;;;;;;17.05;15.20;;;;;;;;;;10281975;28;20526;-62
2024/03/17 01:25:27;;;;;;;13.50;11.98;;;;;;;;;;10299299;28;20079;-62
2024/03/17 01:30:25;;;;;;;12.00;10.75;;;;;;;;;;10278556;28;20070;-62
2024/03/17 01:35:24;;;;;;;12.80;11.45;;;;;;;;;;10281309;28;20079;-62
2024/03/17 01:40:22;;;;;;;13.13;11.02;;;;;;;;;;10282201;28;20102;-62
2024/03/17 01:45:29;;;;;;;14.32;12.77;;;;;;;;;;10280252;28;20079;-62
2024/03/17 01:50:31;;;;;;;19.17;15.60;;;;;;;;;;10284045;28;20077;-62
2024/03/17 01:55:28;;;;;;;14.30;12.88;;;;;;;;;;10284185;28;20060;-62
2024/03/17 02:00:26;;;;;;;13.88;11.25;;;;;;;;;;10268967;28;20079;-62
2024/03/17 02:05:24;;;;;;;14.60;12.98;;;;;;;;;;10279336;28;20064;-62
2024/03/17 02:10:23;;;;;;;20.27;17.30;;;;;;;;;;10281392;28;20084;-62
2024/03/17 02:15:20;;;;;;;18.17;14.65;;;;;;;;;;10279649;28;20522;-61
2024/03/17 02:20:18;;;;;;;20.42;13.55;;;;;;;;;;10278902;28;20505;-62
2024/03/17 02:25:17;;;;;;;13.57;11.82;;;;;;;;;;10278299;28;20072;-62
2024/03/17 02:30:14;;;;;;;12.68;10.85;;;;;;;;;;10277627;28;20532;-61
2024/03/17 02:35:12;;;;;;;14.85;13.25;;;;;;;;;;10284949;28;20501;-62
2024/03/17 02:40:10;;;;;;;14.50;12.35;;;;;;;;;;10277188;28;20072;-62
2024/03/17 02:45:10;;;;;;;16.33;12.43;;;;;;;;;;10277917;28;20081;-62
2024/03/17 02:50:08;;;;;;;15.52;12.27;;;;;;;;;;10277836;28;20115;-62
2024/03/17 02:55:07;;;;;;;14.10;11.77;;;;;;;;;;10278629;28;20087;-61
2024/03/17 03:00:08;;;;;;;13.27;11.85;;;;;;;;;;10270149;28;20084;-62
2024/03/17 03:05:08;;;;;;;15.13;11.73;;;;;;;;;;10283889;28;20033;-62
2024/03/17 03:10:06;;;;;;;13.65;12.25;;;;;;;;;;10265403;28;20080;-62
2024/03/17 03:15:03;;;;;;;14.13;12.60;;;;;;;;;;10277965;28;20068;-62
2024/03/17 03:20:01;;;;;;;15.35;12.98;;;;;;;;;;10279281;28;20465;-62
2024/03/17 03:25:00;;;;;;;16.95;14.18;;;;;;;;;;10275702;28;20057;-62
2024/03/17 03:29:59;;;;;;;15.10;13.48;;;;;;;;;;10275599;28;20067;-62
2024/03/17 03:34:57;;;;;;;14.75;12.82;;;;;;;;;;10296646;28;20080;-62
2024/03/17 03:39:54;;;;;;;16.10;14.40;;;;;;;;;;10275405;28;20075;-62
2024/03/17 03:44:53;;;;;;;14.77;13.07;;;;;;;;;;10276661;28;20528;-62
2024/03/17 03:49:50;;;;;;;14.82;13.32;;;;;;;;;;10275609;28;20529;-62
2024/03/17 03:54:48;;;;;;;13.85;12.38;;;;;;;;;;10277765;28;20068;-61
2024/03/17 03:59:45;;;;;;;16.75;15.10;;;;;;;;;;10276479;28;20082;-62
2024/03/17 04:04:44;;;;;;;19.35;16.25;;;;;;;;;;10281282;28;20079;-62
2024/03/17 04:09:41;;;;;;;14.63;12.98;;;;;;;;;;10276889;28;20087;-62
2024/03/17 04:14:39;;;;;;;43.83;26.45;;;;;;;;;;10281491;28;20524;-62
2024/03/17 04:19:36;;;;;;;18.33;13.50;;;;;;;;;;10281594;28;20072;-62
2024/03/17 04:24:35;;;;;;;16.45;13.63;;;;;;;;;;10276290;28;20458;-62
2024/03/17 04:29:32;;;;;;;14.07;12.52;;;;;;;;;;10275873;28;20071;-62
2024/03/17 04:34:30;;;;;;;16.80;13.77;;;;;;;;;;10277972;28;20057;-61
2024/03/17 04:39:28;;;;;;;14.23;12.73;;;;;;;;;;10270373;28;20080;-62
2024/03/17 04:44:27;;;;;;;16.42;12.32;;;;;;;;;;10275668;28;20056;-61
2024/03/17 04:49:24;;;;;;;14.00;12.30;;;;;;;;;;10275611;28;20083;-62
2024/03/17 04:54:21;;;;;;;16.80;13.05;;;;;;;;;;10277031;28;20064;-61
2024/03/17 04:59:19;;;;;;;13.95;12.45;;;;;;;;;;10273765;28;20064;-62
2024/03/17 05:04:18;;;;;;;15.90;13.45;;;;;;;;;;10273145;28;20079;-61
2024/03/17 05:09:15;;;;;;;15.00;12.52;;;;;;;;;;10272542;28;20644;-61
2024/03/17 05:14:12;;;;;;;15.52;12.40;;;;;;;;;;10275544;28;20083;-62
2024/03/17 05:19:10;;;;;;;16.52;13.93;;;;;;;;;;10275075;28;20079;-62
2024/03/17 05:24:09;;;;;;;15.68;13.35;;;;;;;;;;10274338;28;20068;-61
2024/03/17 05:29:07;;;;;;;13.63;12.23;;;;;;;;;;10274648;28;20501;-61
2024/03/17 05:34:04;;;;;;;15.70;13.13;;;;;;;;;;10280350;28;20076;-62
2024/03/17 05:39:02;;;;;;;16.30;14.10;;;;;;;;;;10272871;28;20075;-62
2024/03/17 05:44:03;;;;;;;16.70;13.40;;;;;;;;;;10273214;28;20119;-63
2024/03/17 05:49:00;;;;;;;14.60;12.75;;;;;;;;;;10293981;28;20068;-62
2024/03/17 05:53:58;;;;;;;15.63;12.30;;;;;;;;;;10290110;28;20068;-62
2024/03/17 05:58:55;;;;;;;15.52;12.98;;;;;;;;;;10287240;28;20064;-63
2024/03/17 06:03:54;;;;;;;13.77;12.32;;;;;;;;;;10279304;28;20166;-62
2024/03/17 06:08:52;;;;;;;16.02;13.40;;;;;;;;;;10281596;28;20076;-61
2024/03/17 06:13:50;;;;;;;14.48;12.98;;;;;;;;;;10278050;28;20087;-61
2024/03/17 06:18:50;;;;;;;16.45;13.55;;;;;;;;;;10278970;28;20061;-62
2024/03/17 06:23:49;;;;;;;14.68;13.18;;;;;;;;;;10278558;28;20048;-61
2024/03/17 06:28:46;;;;;;;17.42;13.32;;;;;;;;;;10279296;28;20077;-61
2024/03/17 06:33:44;;;;;;;17.73;12.75;;;;;;;;;;10279409;28;20442;-61
2024/03/17 06:38:42;;;;;;;14.73;12.75;;;;;;;;;;10284158;28;20084;-62
2024/03/17 06:43:41;;;;;;;14.27;12.43;;;;;;;;;;10276185;28;20064;-62
2024/03/17 06:48:39;;;;;;;14.70;13.20;;;;;;;;;;10287089;28;20451;-62
2024/03/17 06:53:36;;;;;;;13.15;11.85;;;;;;;;;;10281315;28;20072;-61
2024/03/17 06:58:34;;;;;;;15.82;13.60;;;;;;;;;;10282646;28;20561;-62
2024/03/17 07:03:32;;;;;;;14.38;12.95;;;;;;;;;;10278095;28;20464;-61
2024/03/17 07:08:30;;;;;;;18.98;15.55;;;;;;;;;;10274408;28;20502;-61
2024/03/17 07:13:29;;;;;;;21.33;17.33;;;;;;;;;;10274906;28;20084;-61
2024/03/17 07:18:27;;;;;;;21.50;16.98;;;;;;;;;;10287824;28;20090;-62
2024/03/17 07:23:29;;;;;;;20.02;16.50;;;;;;;;;;10277578;28;20087;-63
2024/03/17 07:28:27;;;;;;;14.63;13.25;;;;;;;;;;10274554;28;20551;-62
2024/03/17 07:33:24;;;;;;;13.70;12.30;;;;;;;;;;10271483;28;20095;-63
2024/03/17 07:38:22;;;;;;;15.20;13.20;;;;;;;;;;10276866;28;20079;-62
2024/03/17 07:43:21;;;;;;;16.67;14.98;;;;;;;;;;10279172;28;20065;-63
2024/03/17 07:48:18;;;;;;;16.02;14.15;;;;;;;;;;10274082;28;20450;-62
2024/03/17 07:53:15;;;;;;;16.88;15.07;;;;;;;;;;10273491;28;20118;-63
2024/03/17 07:58:13;;;;;;;15.10;13.57;;;;;;;;;;10276972;28;20052;-62
2024/03/17 08:03:12;;;;;;;17.42;15.60;;;;;;;;;;10275751;28;20524;-61
2024/03/17 08:08:10;;;;;;;17.23;13.25;;;;;;;;;;10276972;28;20119;-61
2024/03/17 08:13:08;;;;;;;18.73;15.95;;;;;;;;;;10275904;28;20595;-61
2024/03/17 08:18:07;;;;;;;18.20;15.77;;;;;;;;;;10278097;28;20494;-61
2024/03/17 08:23:07;;;;;;;17.95;15.80;;;;;;;;;;10281979;28;20136;-62
2024/03/17 08:28:04;;;;;;;29.27;23.55;;;;;;;;;;10278629;28;20076;-62
2024/03/17 08:33:02;;;;;;;20.00;17.33;;;;;;;;;;10274810;28;20575;-62
2024/03/17 08:38:00;;;;;;;17.00;15.00;;;;;;;;;;10274027;28;20061;-62
2024/03/17 08:42:59;;;;;;;15.90;13.95;;;;;;;;;;10277628;28;20060;-62
2024/03/17 08:47:56;;;;;;;29.23;23.10;;;;;;;;;;10280045;28;20084;-62
2024/03/17 08:52:54;;;;;;;19.05;16.27;;;;;;;;;;10275868;28;20080;-63
2024/03/17 08:57:51;;;;;;;22.27;17.17;;;;;;;;;;10278698;28;20061;-62
2024/03/17 09:02:50;;;;;;;24.33;17.40;;;;;;;;;;10269294;28;20060;-61
2024/03/17 09:07:48;;;;;;;22.90;18.05;;;;;;;;;;10269775;28;20067;-60
2024/03/17 09:12:47;;;;;;;18.10;16.23;;;;;;;;;;10257965;28;20088;-63
2024/03/17 09:17:44;;;;;;;15.88;14.02;;;;;;;;;;10290880;28;20075;-63
2024/03/17 09:22:43;;;;;;;17.70;15.05;;;;;;;;;;10269313;28;20484;-62
2024/03/17 09:27:41;;;;;;;15.55;13.95;;;;;;;;;;10278781;28;20057;-62
2024/03/17 09:32:39;;;;;;;16.48;14.48;;;;;;;;;;10279394;28;20517;-62
2024/03/17 09:37:36;;;;;;;15.43;13.80;;;;;;;;;;10278642;28;20061;-62
2024/03/17 09:42:35;;;;;;;13.55;12.13;;;;;;;;;;10282021;28;20077;-62
2024/03/17 09:47:32;;;;;;;15.48;13.90;;;;;;;;;;10283299;28;20070;-62
2024/03/17 09:52:30;;;;;;;14.25;12.88;;;;;;;;;;10282764;28;20076;-62
2024/03/17 09:57:28;;;;;;;14.05;12.65;;;;;;;;;;10281531;28;20073;-62
2024/03/17 10:02:28;;;;;;;10.02;9.02;;;;;;;;;;10281298;28;20056;-62
2024/03/17 10:07:38;;;;;;;13.18;11.88;;;;;;;;;;10279661;28;20060;-62
2024/03/17 10:12:35;;;;;;;16.35;14.00;;;;;;;;;;10286066;28;20084;-62
2024/03/17 10:17:36;;;;;;;11.70;10.30;;;;;;;;;;10284180;28;20085;-62
2024/03/17 10:22:34;;;;;;;13.02;11.73;;;;;;;;;;10282242;28;20081;-62
2024/03/17 10:27:31;;;;;;;16.80;11.85;;;;;;;;;;10284108;28;20130;-62
2024/03/17 10:32:29;;;;;;;11.05;9.95;;;;;;;;;;10285983;28;20071;-62
2024/03/17 10:37:27;;;;;;;11.93;9.77;;;;;;;;;;10283741;28;20080;-62
2024/03/17 10:42:26;;;;;;;11.75;9.73;;;;;;;;;;10277629;28;20532;-62
2024/03/17 10:47:24;;;;;;;10.63;9.48;;;;;;;;;;10276106;28;20060;-62
2024/03/17 10:52:21;;;;;;;7.93;7.22;;;;;;;;;;10271878;28;20081;-61
2024/03/17 10:57:26;;;;;;;9.95;8.30;;;;;;;;;;10271484;28;20068;-63
2024/03/17 11:02:24;;;;;;;8.20;7.35;;;;;;;;;;10272294;28;20576;-62
2024/03/17 11:07:22;;;;;;;7.65;6.95;;;;;;;;;;10283802;28;20058;-62
2024/03/17 11:12:38;;;;;;;12.60;8.45;;;;;;;;;;10274838;28;20091;-62
2024/03/17 11:17:37;;;;;;;6.57;5.93;;;;;;;;;;10282724;28;20505;-61
2024/03/17 11:22:44;;;;;;;8.40;7.50;;;;;;;;;;10263782;28;20652;-62
2024/03/17 11:27:41;;;;;;;7.18;6.45;;;;;;;;;;10275794;28;20118;-62
2024/03/17 11:32:40;;;;;;;7.03;6.32;;;;;;;;;;10275681;28;20072;-61
2024/03/17 11:37:42;;;;;;;11.27;8.02;;;;;;;;;;10275998;28;20069;-61
2024/03/17 11:43:00;;;;;;;8.00;7.20;;;;;;;;;;10275633;28;20068;-61
2024/03/17 11:47:58;;;;;;;7.32;6.22;;;;;;;;;;10280386;28;20079;-62
2024/03/17 11:52:59;;;;;;;7.07;6.38;;;;;;;;;;10273449;28;20079;-63
2024/03/17 11:57:57;;;;;;;16.65;11.23;;;;;;;;;;10289549;28;20086;-63
2024/03/17 12:02:55;;;;;;;7.45;6.43;;;;;;;;;;10285886;28;20076;-64
2024/03/17 12:07:54;;;;;;;8.70;6.47;;;;;;;;;;10267743;28;20091;-62
2024/03/17 12:12:52;;;;;;;7.80;7.07;;;;;;;;;;10277199;28;20084;-62
2024/03/17 12:17:53;;;;;;;11.07;7.10;;;;;;;;;;10277126;28;20064;-62
2024/03/17 12:22:54;;;;;;;6.13;5.53;;;;;;;;;;10273503;28;20061;-62
2024/03/17 12:27:53;;;;;;;6.70;5.97;;;;;;;;;;10279703;28;20498;-62
2024/03/17 12:32:51;;;;;;;6.97;4.75;;;;;;;;;;10281030;28;20076;-63
2024/03/17 12:37:49;;;;;;;7.47;5.93;;;;;;;;;;10276405;28;20536;-63
2024/03/17 12:42:48;;;;;;;5.22;4.72;;;;;;;;;;10273805;28;20064;-63
2024/03/17 12:47:49;;;;;;;5.38;4.88;;;;;;;;;;10273676;28;20076;-62
2024/03/17 12:52:54;;;;;;;5.70;5.20;;;;;;;;;;10277040;28;20084;-62
2024/03/17 13:03:08;;;;;;;9.02;6.70;;;;;;;;;;10289939;28;19960;-63
2024/03/17 13:08:06;;;;;;;6.38;5.63;;;;;;;;;;10281703;28;20155;-62
2024/03/17 13:13:04;;;;;;;10.38;6.78;;;;;;;;;;10289796;28;20581;-62
2024/03/17 13:18:01;;;;;;;6.75;6.10;;;;;;;;;;10285671;28;20077;-63
2024/03/17 13:23:01;;;;;;;8.43;6.88;;;;;;;;;;10284094;28;20074;-62
2024/03/17 13:28:00;;;;;;;11.15;9.55;;;;;;;;;;10276123;28;20144;-63
2024/03/17 13:32:58;;;;;;;7.88;6.65;;;;;;;;;;10279857;28;20075;-63
2024/03/17 13:38:01;;;;;;;7.25;6.57;;;;;;;;;;10282759;28;20083;-63
2024/03/17 13:42:59;;;;;;;7.97;7.18;;;;;;;;;;10280522;28;20071;-62
2024/03/17 13:47:57;;;;;;;8.23;6.20;;;;;;;;;;10281932;28;20068;-62
2024/03/17 13:52:55;;;;;;;8.65;5.80;;;;;;;;;;10274904;28;20080;-63
2024/03/17 13:57:54;;;;;;;8.70;7.80;;;;;;;;;;10281880;28;20079;-62
2024/03/17 14:02:53;;;;;;;12.65;11.13;;;;;;;;;;10278246;28;20057;-62
2024/03/17 14:07:50;;;;;;;15.93;11.00;;;;;;;;;;10277079;28;20069;-62
2024/03/17 14:12:48;;;;;;;8.68;5.97;;;;;;;;;;10277315;28;20088;-62
2024/03/17 14:17:48;;;;;;;9.10;7.43;;;;;;;;;;10266020;28;20079;-62
2024/03/17 14:22:48;;;;;;;7.22;5.93;;;;;;;;;;10282175;28;20088;-62
2024/03/17 14:27:46;;;;;;;6.75;5.78;;;;;;;;;;10301161;28;20070;-63
2024/03/17 14:32:43;;;;;;;8.20;6.95;;;;;;;;;;10263378;28;20080;-62
2024/03/17 14:37:47;;;;;;;6.90;5.55;;;;;;;;;;10285552;28;20063;-63
2024/03/17 14:42:44;;;;;;;9.30;5.97;;;;;;;;;;10283197;28;20079;-63
2024/03/17 14:47:42;;;;;;;11.65;9.50;;;;;;;;;;10279664;28;20096;-62
2024/03/17 14:52:40;;;;;;;11.35;10.15;;;;;;;;;;10275332;28;20072;-62
2024/03/17 14:57:39;;;;;;;34.90;26.60;;;;;;;;;;10309035;28;20071;-61
2024/03/17 15:02:37;;;;;;;20.60;18.38;;;;;;;;;;10283782;28;20083;-62
2024/03/17 15:07:34;;;;;;;11.65;10.50;;;;;;;;;;10272753;28;20080;-63
2024/03/17 15:12:31;;;;;;;6.53;5.93;;;;;;;;;;10271990;28;20096;-62
2024/03/17 15:17:30;;;;;;;7.03;6.28;;;;;;;;;;10274848;28;20522;-62
2024/03/17 15:22:28;;;;;;;10.98;9.07;;;;;;;;;;10275181;28;20074;-62
2024/03/17 15:27:25;;;;;;;19.88;17.83;;;;;;;;;;10275460;28;20071;-63
2024/03/17 15:32:23;;;;;;;11.25;8.43;;;;;;;;;;10282336;28;20072;-63
2024/03/17 15:37:22;;;;;;;25.10;19.63;;;;;;;;;;10281748;28;20072;-62
2024/03/17 15:42:19;;;;;;;36.83;27.52;;;;;;;;;;10275508;28;20060;-62
2024/03/17 15:47:17;;;;;;;35.38;25.05;;;;;;;;;;10272080;28;20138;-62
2024/03/17 15:52:14;;;;;;;21.17;15.90;;;;;;;;;;10274149;28;20080;-62
2024/03/17 15:57:13;;;;;;;28.25;22.92;;;;;;;;;;10277083;28;20053;-62
2024/03/17 16:02:12;;;;;;;42.58;27.50;;;;;;;;;;10277319;28;20064;-63
2024/03/17 16:07:10;;;;;;;40.22;24.67;;;;;;;;;;10274382;28;20071;-63
2024/03/17 16:12:10;;;;;;;39.55;29.95;;;;;;;;;;10282893;28;20072;-63
2024/03/17 16:17:10;;;;;;;54.03;42.20;;;;;;;;;;10290744;28;20514;-63
2024/03/17 16:22:09;;;;;;;45.17;29.73;;;;;;;;;;10275902;28;20060;-62
2024/03/17 16:27:07;;;;;;;17.63;12.07;;;;;;;;;;10284451;28;20083;-63
2024/03/17 16:32:04;;;;;;;11.73;10.13;;;;;;;;;;10275847;28;20071;-62
2024/03/17 16:37:05;;;;;;;13.77;11.18;;;;;;;;;;10279731;28;20081;-63
2024/03/17 16:42:02;;;;;;;17.50;13.68;;;;;;;;;;10279707;28;20206;-64
2024/03/17 16:47:19;;;;;;;27.38;21.60;;;;;;;;;;10281027;28;20068;-63
2024/03/17 16:52:18;;;;;;;27.08;23.38;;;;;;;;;;10275712;28;20068;-63
2024/03/17 16:57:15;;;;;;;19.95;15.52;;;;;;;;;;10277695;28;20469;-63
2024/03/17 17:02:15;;;;;;;18.40;15.60;;;;;;;;;;10274088;28;20064;-63
2024/03/17 17:07:13;;;;;;;22.70;17.00;;;;;;;;;;10281369;28;20568;-63
2024/03/17 17:12:14;;;;;;;14.93;13.32;;;;;;;;;;10279019;28;20076;-64
2024/03/17 17:17:11;;;;;;;20.65;18.40;;;;;;;;;;10293695;28;20075;-64
2024/03/17 17:22:10;;;;;;;19.02;15.73;;;;;;;;;;10278602;28;20450;-64
2024/03/17 17:27:09;;;;;;;16.88;15.07;;;;;;;;;;10281510;28;20060;-63
2024/03/17 17:32:09;;;;;;;24.83;21.92;;;;;;;;;;10281272;28;20072;-64
2024/03/17 17:37:09;;;;;;;24.00;21.30;;;;;;;;;;10271454;28;20084;-63
2024/03/17 17:42:06;;;;;;;27.15;17.77;;;;;;;;;;10274168;28;20064;-63
2024/03/17 17:47:04;;;;;;;19.92;13.68;;;;;;;;;;10278228;28;20064;-64
2024/03/17 17:52:04;;;;;;;30.70;21.98;;;;;;;;;;10283583;28;20075;-64
2024/03/17 17:57:01;;;;;;;10.35;9.27;;;;;;;;;;10284139;28;20079;-63
2024/03/17 18:01:59;;;;;;;9.95;8.88;;;;;;;;;;10287748;28;20497;-64
2024/03/17 18:06:56;;;;;;;10.90;9.80;;;;;;;;;;10276374;28;20528;-64
2024/03/17 18:11:58;;;;;;;12.05;9.88;;;;;;;;;;10279135;28;20481;-63
2024/03/17 18:16:56;;;;;;;13.27;11.80;;;;;;;;;;10285607;28;20069;-64
2024/03/17 18:21:53;;;;;;;20.35;14.77;;;;;;;;;;10282112;28;20276;-63
2024/03/17 18:26:51;;;;;;;14.18;12.18;;;;;;;;;;10281898;28;20481;-63
2024/03/17 18:31:50;;;;;;;11.80;10.60;;;;;;;;;;10281366;28;20065;-64
2024/03/17 18:36:47;;;;;;;13.48;11.13;;;;;;;;;;10273532;28;20087;-63
2024/03/17 18:41:44;;;;;;;13.43;11.18;;;;;;;;;;10272876;28;20428;-63
2024/03/17 18:46:42;;;;;;;13.30;11.07;;;;;;;;;;10280659;28;20056;-63
2024/03/17 18:51:41;;;;;;;10.02;9.00;;;;;;;;;;10279511;28;20077;-62
2024/03/17 18:56:38;;;;;;;10.98;9.73;;;;;;;;;;10277063;28;20064;-62
2024/03/17 19:01:36;;;;;;;11.98;9.70;;;;;;;;;;10283064;28;20064;-62
2024/03/17 19:06:33;;;;;;;11.73;9.93;;;;;;;;;;10278532;28;20168;-62
2024/03/17 19:11:32;;;;;;;11.38;10.20;;;;;;;;;;10281173;28;20087;-62
2024/03/17 19:16:30;;;;;;;10.88;9.75;;;;;;;;;;10275301;28;20076;-62
2024/03/17 19:21:27;;;;;;;15.35;10.38;;;;;;;;;;10276263;28;20056;-64
2024/03/17 19:26:26;;;;;;;14.10;10.50;;;;;;;;;;10281034;28;20521;-61
2024/03/17 19:31:25;;;;;;;13.75;11.05;;;;;;;;;;10276021;28;20071;-62
2024/03/17 19:36:22;;;;;;;12.30;11.10;;;;;;;;;;10295019;28;20091;-63
2024/03/17 19:41:20;;;;;;;12.30;11.05;;;;;;;;;;10280489;28;20076;-62
2024/03/17 19:46:20;;;;;;;11.75;10.27;;;;;;;;;;10278156;28;20061;-62
2024/03/17 19:51:21;;;;;;;13.15;10.95;;;;;;;;;;10276071;28;20079;-62
2024/03/17 19:56:18;;;;;;;11.10;9.82;;;;;;;;;;10281124;28;20072;-62
2024/03/17 20:01:16;;;;;;;10.98;9.77;;;;;;;;;;10276050;28;20060;-62
2024/03/17 20:06:17;;;;;;;11.07;9.48;;;;;;;;;;10275344;28;20075;-62
2024/03/17 20:11:22;;;;;;;14.35;11.40;;;;;;;;;;10282000;28;20553;-62
2024/03/17 20:16:23;;;;;;;13.50;12.02;;;;;;;;;;10274857;28;20084;-62
2024/03/17 20:21:22;;;;;;;13.13;11.82;;;;;;;;;;10277406;28;20064;-61
2024/03/17 20:26:22;;;;;;;14.90;12.77;;;;;;;;;;10273156;28;20064;-62
2024/03/17 20:31:20;;;;;;;15.10;13.43;;;;;;;;;;10274681;28;20076;-63
2024/03/17 20:36:19;;;;;;;14.13;12.73;;;;;;;;;;10274042;28;20075;-62
2024/03/17 20:41:17;;;;;;;16.60;14.80;;;;;;;;;;10277382;28;20068;-63
2024/03/17 20:46:16;;;;;;;15.35;13.85;;;;;;;;;;10277372;28;20075;-62
2024/03/17 20:51:16;;;;;;;20.02;14.88;;;;;;;;;;10275681;28;20082;-62
2024/03/17 20:56:14;;;;;;;19.10;15.68;;;;;;;;;;10294939;28;20533;-62
2024/03/17 21:01:12;;;;;;;17.33;15.52;;;;;;;;;;10292767;28;20068;-62
2024/03/17 21:06:14;;;;;;;16.65;14.77;;;;;;;;;;10262645;28;20509;-62
2024/03/17 21:11:11;;;;;;;16.42;14.75;;;;;;;;;;10274069;28;20122;-62
2024/03/17 21:16:10;;;;;;;15.90;14.30;;;;;;;;;;10279326;28;20080;-62
2024/03/17 21:21:07;;;;;;;25.00;22.52;;;;;;;;;;10274939;28;20101;-62
2024/03/17 21:26:09;;;;;;;15.43;12.80;;;;;;;;;;10279956;28;20072;-62
2024/03/17 21:31:07;;;;;;;15.45;13.45;;;;;;;;;;10281272;28;20060;-62
2024/03/17 21:36:05;;;;;;;14.68;13.23;;;;;;;;;;10287116;28;20080;-61
2024/03/17 21:41:03;;;;;;;14.05;12.65;;;;;;;;;;10281509;28;20063;-61
2024/03/17 21:46:02;;;;;;;12.98;11.73;;;;;;;;;;10281514;28;20127;-63
2024/03/17 21:51:00;;;;;;;15.82;12.88;;;;;;;;;;10273223;28;20091;-62
2024/03/17 21:55:57;;;;;;;13.25;10.73;;;;;;;;;;10282085;28;20119;-62
2024/03/17 22:00:54;;;;;;;13.75;10.18;;;;;;;;;;10279305;28;20594;-62
2024/03/17 22:05:54;;;;;;;11.07;9.93;;;;;;;;;;10281509;28;20103;-62
2024/03/17 22:10:55;;;;;;;14.13;12.60;;;;;;;;;;10278706;28;20088;-62
2024/03/17 22:15:56;;;;;;;11.50;10.25;;;;;;;;;;10269265;28;20092;-62
2024/03/17 22:20:56;;;;;;;10.60;9.50;;;;;;;;;;10280384;28;20073;-62
2024/03/17 22:25:54;;;;;;;10.13;8.98;;;;;;;;;;10279590;28;20068;-62
2024/03/17 22:30:52;;;;;;;10.60;9.18;;;;;;;;;;10278921;28;20513;-62
2024/03/17 22:35:58;;;;;;;9.27;8.27;;;;;;;;;;10276766;28;20648;-62
2024/03/17 22:40:56;;;;;;;10.05;8.75;;;;;;;;;;10286235;28;20077;-62
2024/03/17 22:45:53;;;;;;;9.25;8.25;;;;;;;;;;10264307;28;20076;-62
2024/03/17 22:50:51;;;;;;;9.15;8.25;;;;;;;;;;10287134;28;20045;-62
2024/03/17 22:55:50;;;;;;;9.82;7.82;;;;;;;;;;10278345;28;20073;-62
2024/03/17 23:00:51;;;;;;;9.98;8.43;;;;;;;;;;10277430;28;20080;-62
2024/03/17 23:05:49;;;;;;;10.60;8.30;;;;;;;;;;10281664;28;20064;-62
2024/03/17 23:10:46;;;;;;;6.93;6.32;;;;;;;;;;10275779;28;20514;-62
2024/03/17 23:15:48;;;;;;;8.82;6.20;;;;;;;;;;10277745;28;20068;-62
2024/03/17 23:20:45;;;;;;;7.20;6.50;;;;;;;;;;10276140;28;20080;-62
2024/03/17 23:25:42;;;;;;;6.10;5.50;;;;;;;;;;10282982;28;20083;-62
2024/03/17 23:30:41;;;;;;;7.30;6.22;;;;;;;;;;10279645;28;20493;-62
2024/03/17 23:35:41;;;;;;;8.07;6.35;;;;;;;;;;10276666;28;20096;-62
2024/03/17 23:40:39;;;;;;;8.15;5.60;;;;;;;;;;10282504;28;20513;-62
2024/03/17 23:45:36;;;;;;;6.70;5.65;;;;;;;;;;10276210;28;20466;-63
2024/03/17 23:50:34;;;;;;;9.45;5.63;;;;;;;;;;10276532;28;20068;-62
2024/03/17 23:55:32;;;;;;;6.38;5.20;;;;;;;;;;10297434;28;20080;-62
